Time;durP1;ratioP1;P1;durP2;ratioP2;P2;SDS_P1;SDS_P2;PMS_P1;PMS_P2;Temp;Humidity;BMP_temperature;BMP_pressure;BME280_temperature;BME280_humidity;BME280_pressure;Samples;Min_cycle;Max_cycle;Signal;HPM_P1;HPM_P2
2022/06/12 00:00:33;;;;;;;6.40;5.90;;;18.10;99.90;;;;;;5052031;28;20563;-67
2022/06/12 00:03:01;;;;;;;5.60;5.10;;;18.00;99.90;;;;;;5050309;28;20180;-67
2022/06/12 00:05:30;;;;;;;6.93;6.33;;;18.00;99.90;;;;;;5050417;28;20266;-66
2022/06/12 00:07:56;;;;;;;6.47;5.83;;;17.90;99.90;;;;;;5051414;28;20838;-67
2022/06/12 00:10:22;;;;;;;6.60;6.00;;;17.90;99.90;;;;;;5042384;28;20448;-67
2022/06/12 00:12:49;;;;;;;7.00;6.47;;;17.90;99.90;;;;;;5051623;28;20242;-66
2022/06/12 00:15:20;;;;;;;5.67;5.27;;;17.90;99.90;;;;;;5049704;28;20807;-66
2022/06/12 00:17:46;;;;;;;5.83;5.37;;;17.90;99.90;;;;;;5043482;28;20453;-66
2022/06/12 00:20:15;;;;;;;6.47;5.30;;;17.90;99.90;;;;;;5045278;28;20472;-65
2022/06/12 00:22:41;;;;;;;6.20;5.70;;;17.80;99.90;;;;;;5051014;28;20467;-67
2022/06/12 00:25:09;;;;;;;5.80;5.37;;;17.80;99.90;;;;;;5049731;28;20740;-66
2022/06/12 00:27:36;;;;;;;6.87;6.20;;;17.80;99.90;;;;;;5047924;28;20491;-65
2022/06/12 00:30:02;;;;;;;6.17;5.50;;;17.80;99.90;;;;;;5049058;28;20526;-66
2022/06/12 00:32:29;;;;;;;6.00;5.50;;;17.80;99.90;;;;;;5047962;28;20461;-67
2022/06/12 00:34:56;;;;;;;6.57;5.90;;;17.80;99.90;;;;;;5053393;28;20435;-66
2022/06/12 00:37:24;;;;;;;9.50;5.50;;;17.70;99.90;;;;;;5046096;28;20551;-66
2022/06/12 00:39:51;;;;;;;6.47;5.97;;;17.70;99.90;;;;;;5050417;28;20470;-66
2022/06/12 00:42:31;;;;;;;6.63;6.13;;;17.70;99.90;;;;;;5052422;28;20969;-66
2022/06/12 00:44:59;;;;;;;5.90;5.40;;;17.70;99.90;;;;;;5046741;28;20450;-67
2022/06/12 00:47:26;;;;;;;5.97;5.57;;;17.60;99.90;;;;;;5048662;28;20436;-67
2022/06/12 00:49:59;;;;;;;8.20;6.50;;;17.50;99.90;;;;;;5053257;28;20439;-66
2022/06/12 00:52:35;;;;;;;6.30;5.70;;;17.50;99.90;;;;;;5051024;28;20958;-67
2022/06/12 00:55:24;;;;;;;6.30;5.80;;;17.50;99.90;;;;;;5050392;28;20798;-65
2022/06/12 00:57:52;;;;;;;6.90;6.30;;;17.50;99.90;;;;;;5050230;28;20486;-67
2022/06/12 01:00:18;;;;;;;6.67;5.90;;;17.50;99.90;;;;;;5041486;28;20526;-67
2022/06/12 01:02:44;;;;;;;7.70;5.97;;;17.60;99.90;;;;;;5053042;28;20439;-67
2022/06/12 01:07:59;;;;;;;6.00;5.50;;;17.50;99.90;;;;;;5039340;28;20589;-67
2022/06/12 01:10:28;;;;;;;6.07;5.57;;;17.40;99.90;;;;;;5044709;28;20498;-66
2022/06/12 01:12:57;;;;;;;6.10;5.50;;;17.30;99.90;;;;;;5050560;28;20538;-65
2022/06/12 01:15:37;;;;;;;6.43;5.93;;;17.40;99.90;;;;;;5035245;28;20574;-66
2022/06/12 01:18:07;;;;;;;6.30;5.80;;;17.40;99.90;;;;;;5042024;28;20448;-66
2022/06/12 01:20:51;;;;;;;6.10;5.50;;;17.40;99.90;;;;;;5047892;28;20639;-66
2022/06/12 01:23:44;;;;;;;6.17;5.77;;;17.30;99.90;;;;;;5047001;28;20443;-65
2022/06/12 01:26:20;;;;;;;6.80;6.20;;;17.30;99.90;;;;;;5059295;28;20924;-66
2022/06/12 01:29:05;;;;;;;6.70;6.10;;;17.20;99.90;;;;;;5068303;28;20529;-68
2022/06/12 01:31:45;;;;;;;5.97;5.47;;;17.20;99.90;;;;;;5047312;28;20460;-67
2022/06/12 01:34:25;;;;;;;6.37;5.97;;;17.10;99.90;;;;;;5044475;28;20807;-66
2022/06/12 01:37:28;;;;;;;7.77;5.70;;;17.10;99.90;;;;;;5035321;28;20492;-66
2022/06/12 01:40:16;;;;;;;6.80;6.07;;;17.10;99.90;;;;;;5047983;28;20955;-67
2022/06/12 01:42:59;;;;;;;6.23;5.23;;;17.10;99.90;;;;;;5041485;28;20783;-66
2022/06/12 01:45:54;;;;;;;6.93;6.23;;;17.10;99.90;;;;;;5049846;28;20444;-66
2022/06/12 01:48:41;;;;;;;6.30;5.37;;;17.10;99.90;;;;;;5043104;28;20436;-65
2022/06/12 01:51:19;;;;;;;7.97;5.40;;;17.10;99.90;;;;;;5040466;28;20469;-66
2022/06/12 01:54:06;;;;;;;6.30;5.87;;;17.10;99.90;;;;;;5046496;28;20919;-66
2022/06/12 01:56:50;;;;;;;6.17;5.70;;;17.00;99.90;;;;;;5049045;28;20441;-65
2022/06/12 01:59:29;;;;;;;7.33;6.60;;;17.00;99.90;;;;;;5045072;28;20519;-65
2022/06/12 02:02:03;;;;;;;6.50;6.10;;;16.90;99.90;;;;;;5040775;28;20493;-66
2022/06/12 02:04:48;;;;;;;6.03;5.40;;;16.90;99.90;;;;;;5044824;28;20432;-67
2022/06/12 02:07:22;;;;;;;5.93;5.43;;;16.90;99.90;;;;;;5046850;28;20460;-67
2022/06/12 02:10:10;;;;;;;6.33;5.70;;;16.90;99.90;;;;;;5041863;28;20521;-66
2022/06/12 02:15:36;;;;;;;7.20;5.80;;;16.90;99.90;;;;;;5050090;28;20436;-66
2022/06/12 02:18:23;;;;;;;7.07;6.57;;;16.90;99.90;;;;;;5050648;28;21002;-66
2022/06/12 02:21:05;;;;;;;6.53;6.00;;;16.90;99.90;;;;;;5047901;28;20478;-66
2022/06/12 02:23:40;;;;;;;6.83;6.40;;;16.80;99.90;;;;;;5050990;28;20449;-66
2022/06/12 02:26:10;;;;;;;6.30;5.70;;;16.80;99.90;;;;;;5044227;28;20430;-65
2022/06/12 02:28:47;;;;;;;5.93;5.50;;;16.80;99.90;;;;;;5045328;28;20448;-64
2022/06/12 02:31:19;;;;;;;6.90;6.30;;;16.70;99.90;;;;;;5037128;28;20452;-67
2022/06/12 02:33:49;;;;;;;6.00;5.50;;;16.70;99.90;;;;;;5046833;28;20983;-65
2022/06/12 02:36:26;;;;;;;5.57;5.07;;;16.60;99.90;;;;;;5045914;28;20819;-67
2022/06/12 02:38:59;;;;;;;6.57;5.97;;;16.60;99.90;;;;;;5042734;28;20458;-65
2022/06/12 02:41:48;;;;;;;7.40;6.80;;;16.60;99.90;;;;;;5049987;28;20518;-66
2022/06/12 02:44:24;;;;;;;5.93;5.50;;;16.70;99.90;;;;;;5048337;28;20991;-66
2022/06/12 02:46:57;;;;;;;8.03;6.97;;;16.70;99.90;;;;;;5043246;28;20427;-66
2022/06/12 02:49:23;;;;;;;7.27;6.57;;;16.60;99.90;;;;;;5036992;28;20441;-66
2022/06/12 02:52:05;;;;;;;6.20;5.63;;;16.60;99.90;;;;;;5035204;28;20521;-66
2022/06/12 02:54:49;;;;;;;7.27;6.10;;;16.50;99.90;;;;;;5049592;28;20265;-66
2022/06/12 02:57:19;;;;;;;6.67;6.07;;;16.40;99.90;;;;;;5048178;28;20523;-67
2022/06/12 02:59:53;;;;;;;7.57;7.00;;;16.30;99.90;;;;;;5044211;28;21051;-66
2022/06/12 03:02:33;;;;;;;6.93;6.30;;;16.20;99.90;;;;;;5048183;28;20450;-64
2022/06/12 03:05:20;;;;;;;7.27;6.77;;;16.20;99.90;;;;;;5049504;28;20438;-65
2022/06/12 03:07:46;;;;;;;7.77;6.83;;;16.20;99.90;;;;;;5059741;28;20430;-65
2022/06/12 03:10:16;;;;;;;7.10;6.50;;;16.20;99.90;;;;;;5048929;28;20445;-65
2022/06/12 03:12:42;;;;;;;7.10;6.47;;;16.20;99.90;;;;;;5053766;28;20450;-66
2022/06/12 03:15:26;;;;;;;7.90;7.10;;;16.10;99.90;;;;;;5052856;28;20796;-66
2022/06/12 03:17:51;;;;;;;6.67;5.97;;;16.10;99.90;;;;;;5044576;28;20226;-67
2022/06/12 03:20:18;;;;;;;7.77;7.17;;;16.10;99.90;;;;;;5046894;28;20472;-66
2022/06/12 03:23:08;;;;;;;7.20;6.50;;;16.10;99.90;;;;;;5053068;28;20173;-66
2022/06/12 03:25:56;;;;;;;7.50;6.90;;;16.00;99.90;;;;;;5049920;28;20445;-66
2022/06/12 03:28:45;;;;;;;6.93;6.43;;;16.00;99.90;;;;;;5053370;28;20442;-66
2022/06/12 03:31:19;;;;;;;10.60;6.83;;;16.00;99.90;;;;;;5046683;28;20551;-66
2022/06/12 03:33:45;;;;;;;7.70;6.97;;;16.10;99.90;;;;;;5053547;28;20467;-66
2022/06/12 03:36:31;;;;;;;8.70;7.77;;;16.10;99.90;;;;;;5048578;28;20495;-66
2022/06/12 03:39:09;;;;;;;7.47;6.90;;;16.00;99.90;;;;;;5047780;28;20286;-66
2022/06/12 03:41:49;;;;;;;6.20;5.80;;;16.00;99.90;;;;;;5058368;28;20452;-66
2022/06/12 03:44:21;;;;;;;6.57;5.97;;;16.00;99.90;;;;;;5054694;28;20938;-66
2022/06/12 03:47:16;;;;;;;8.80;6.70;;;16.00;99.90;;;;;;5046992;28;20427;-67
2022/06/12 03:49:47;;;;;;;7.00;6.53;;;16.10;99.90;;;;;;5061167;28;20576;-66
2022/06/12 03:52:30;;;;;;;6.77;6.17;;;16.20;99.90;;;;;;5053338;28;20464;-65
2022/06/12 03:55:01;;;;;;;6.80;6.30;;;16.20;99.90;;;;;;5052998;28;20464;-65
2022/06/12 03:57:53;;;;;;;7.40;6.63;;;16.30;99.90;;;;;;5053317;28;20954;-65
2022/06/12 04:00:26;;;;;;;6.33;5.87;;;16.30;99.90;;;;;;5052309;28;20514;-66
2022/06/12 04:02:54;;;;;;;6.90;6.37;;;16.30;99.90;;;;;;5050422;28;20439;-65
2022/06/12 04:05:25;;;;;;;6.97;6.17;;;16.50;99.90;;;;;;5053499;28;21214;-65
2022/06/12 04:07:53;;;;;;;7.03;6.53;;;16.50;99.90;;;;;;5055183;28;20459;-65
2022/06/12 04:10:23;;;;;;;6.10;5.70;;;16.60;99.90;;;;;;5052593;28;20801;-65
2022/06/12 04:12:50;;;;;;;7.77;6.73;;;16.80;99.90;;;;;;5050601;28;20435;-65
2022/06/12 04:15:40;;;;;;;6.73;6.23;;;16.90;99.90;;;;;;5051815;28;20445;-65
2022/06/12 04:18:06;;;;;;;7.37;6.70;;;16.90;99.90;;;;;;5053838;28;20535;-65
2022/06/12 04:20:38;;;;;;;7.43;6.80;;;17.00;99.90;;;;;;5049261;28;21050;-65
2022/06/12 04:23:30;;;;;;;7.70;7.10;;;17.20;99.90;;;;;;5052514;28;21001;-65
2022/06/12 04:26:07;;;;;;;6.87;6.37;;;17.20;99.90;;;;;;5046654;28;20528;-65
2022/06/12 04:28:37;;;;;;;6.73;6.23;;;17.20;99.90;;;;;;5053778;28;20941;-66
2022/06/12 04:31:08;;;;;;;6.40;5.90;;;17.30;99.90;;;;;;5054948;28;20870;-65
2022/06/12 04:33:56;;;;;;;6.53;6.03;;;17.40;99.90;;;;;;5051061;28;20935;-66
2022/06/12 04:36:22;;;;;;;6.43;5.93;;;17.50;99.90;;;;;;5048573;28;20457;-66
2022/06/12 04:38:48;;;;;;;6.43;5.90;;;17.70;99.90;;;;;;5058988;28;20447;-66
2022/06/12 04:41:22;;;;;;;6.30;5.70;;;17.80;99.90;;;;;;5049634;28;20471;-65
2022/06/12 04:43:47;;;;;;;7.90;7.20;;;18.00;99.90;;;;;;5041690;28;20452;-65
2022/06/12 04:46:13;;;;;;;6.70;6.30;;;18.10;99.90;;;;;;5048768;28;20964;-65
2022/06/12 04:48:41;;;;;;;7.20;6.70;;;18.20;99.90;;;;;;5053800;28;20703;-66
2022/06/12 04:51:10;;;;;;;6.83;6.33;;;18.30;99.90;;;;;;5054320;28;20578;-65
2022/06/12 04:53:36;;;;;;;7.20;6.60;;;18.40;99.90;;;;;;5051853;28;20938;-66
2022/06/12 04:56:03;;;;;;;7.70;7.07;;;18.60;99.90;;;;;;5050642;28;20438;-65
2022/06/12 04:58:29;;;;;;;6.73;6.23;;;18.80;99.90;;;;;;5043619;28;20536;-66
2022/06/12 05:00:55;;;;;;;7.17;6.67;;;19.00;99.90;;;;;;5056679;28;20509;-66
2022/06/12 05:03:21;;;;;;;6.90;6.33;;;19.10;99.90;;;;;;5051532;28;21048;-66
2022/06/12 05:05:47;;;;;;;6.73;6.23;;;19.30;99.90;;;;;;5057541;28;20185;-66
2022/06/12 05:08:13;;;;;;;7.30;6.63;;;19.40;99.90;;;;;;5049374;28;20190;-66
2022/06/12 05:10:40;;;;;;;7.43;6.90;;;19.50;99.90;;;;;;5052641;28;20456;-66
2022/06/12 05:13:05;;;;;;;7.90;7.30;;;19.60;99.90;;;;;;5052122;28;20439;-66
2022/06/12 05:15:31;;;;;;;8.40;7.80;;;19.70;99.90;;;;;;5043586;28;21003;-66
2022/06/12 05:17:56;;;;;;;9.33;6.87;;;19.80;99.90;;;;;;5052317;28;20184;-66
2022/06/12 05:20:26;;;;;;;7.20;6.63;;;19.90;99.90;;;;;;5050080;28;20572;-65
2022/06/12 05:22:52;;;;;;;7.53;6.83;;;20.10;99.90;;;;;;5042310;28;20184;-66
2022/06/12 05:25:18;;;;;;;8.60;5.80;;;20.30;99.90;;;;;;5053986;28;20440;-66
2022/06/12 05:27:45;;;;;;;6.63;6.13;;;20.50;99.90;;;;;;5068833;28;20842;-66
2022/06/12 05:30:16;;;;;;;7.10;6.30;;;20.60;99.90;;;;;;5061966;28;20431;-66
2022/06/12 05:32:45;;;;;;;6.93;6.40;;;20.70;99.90;;;;;;5049468;28;20446;-66
2022/06/12 05:35:11;;;;;;;8.23;6.30;;;20.90;99.90;;;;;;5046225;28;20437;-66
2022/06/12 05:37:38;;;;;;;6.50;6.00;;;21.00;99.90;;;;;;5053543;28;20448;-66
2022/06/12 05:40:07;;;;;;;6.73;6.13;;;21.10;99.90;;;;;;5058445;28;20450;-66
2022/06/12 05:42:32;;;;;;;8.30;7.60;;;21.20;99.90;;;;;;5047902;28;20785;-66
2022/06/12 05:44:58;;;;;;;6.67;6.17;;;21.30;99.90;;;;;;5046830;28;20440;-66
2022/06/12 05:47:23;;;;;;;6.27;5.77;;;21.40;99.90;;;;;;5047891;28;20188;-66
2022/06/12 05:49:49;;;;;;;8.40;6.83;;;21.60;99.90;;;;;;5054117;28;20181;-66
2022/06/12 05:52:15;;;;;;;6.70;6.10;;;21.80;99.90;;;;;;5045115;28;20196;-66
2022/06/12 05:54:41;;;;;;;7.40;6.23;;;21.90;99.90;;;;;;5052996;28;20186;-66
2022/06/12 05:57:07;;;;;;;6.73;6.13;;;22.00;99.90;;;;;;5049326;28;20190;-66
2022/06/12 05:59:33;;;;;;;6.30;5.80;;;22.10;99.90;;;;;;5045985;28;20468;-66
2022/06/12 06:01:58;;;;;;;8.77;7.60;;;22.20;99.90;;;;;;5055448;28;20534;-66
2022/06/12 06:04:24;;;;;;;8.17;7.37;;;22.10;99.90;;;;;;5046197;28;20296;-66
2022/06/12 06:06:57;;;;;;;7.60;7.00;;;22.20;99.90;;;;;;5049161;28;20177;-66
2022/06/12 06:09:24;;;;;;;6.77;6.33;;;22.30;99.90;;;;;;5052027;28;20182;-66
2022/06/12 06:11:49;;;;;;;6.10;5.60;;;22.50;99.90;;;;;;5056721;28;20446;-66
2022/06/12 06:14:15;;;;;;;8.00;7.40;;;22.70;99.90;;;;;;5043370;28;20455;-66
2022/06/12 06:16:42;;;;;;;7.40;6.10;;;22.80;99.90;;;;;;5046830;28;20656;-66
2022/06/12 06:19:08;;;;;;;7.50;6.13;;;23.10;99.90;;;;;;5040699;28;20173;-66
2022/06/12 06:21:35;;;;;;;6.83;6.27;;;23.30;99.90;;;;;;5049802;28;20460;-66
2022/06/12 06:24:00;;;;;;;6.03;5.60;;;23.40;99.90;;;;;;5048265;28;20549;-66
2022/06/12 06:26:26;;;;;;;7.37;6.23;;;23.60;99.90;;;;;;5059890;28;20537;-66
2022/06/12 06:28:55;;;;;;;5.50;5.07;;;23.70;99.90;;;;;;5071261;28;20682;-66
2022/06/12 06:31:20;;;;;;;6.00;5.60;;;23.80;99.90;;;;;;5058268;28;20616;-66
2022/06/12 06:33:46;;;;;;;7.07;6.43;;;24.00;99.90;;;;;;5051413;28;20527;-66
2022/06/12 06:36:12;;;;;;;14.03;5.67;;;24.20;99.90;;;;;;5051281;28;20326;-66
2022/06/12 06:38:38;;;;;;;5.60;5.10;;;24.40;99.90;;;;;;5042820;28;20551;-66
2022/06/12 06:41:04;;;;;;;6.57;6.07;;;24.70;99.90;;;;;;5034253;28;20544;-66
2022/06/12 06:43:30;;;;;;;7.20;5.70;;;24.80;99.90;;;;;;5048256;28;20517;-66
2022/06/12 06:46:14;;;;;;;5.20;4.80;;;25.00;99.90;;;;;;5055392;28;20165;-66
2022/06/12 06:48:40;;;;;;;5.30;4.90;;;25.20;99.90;;;;;;5054984;28;20419;-66
2022/06/12 06:51:05;;;;;;;5.47;5.03;;;25.40;99.90;;;;;;5055164;28;20441;-66
2022/06/12 06:53:31;;;;;;;4.90;4.60;;;25.40;99.90;;;;;;5055058;28;20177;-66
2022/06/12 06:55:57;;;;;;;10.27;9.37;;;25.40;99.90;;;;;;5044467;28;20435;-66
2022/06/12 06:58:24;;;;;;;5.13;4.73;;;25.60;99.90;;;;;;5034867;28;20602;-66
2022/06/12 07:00:51;;;;;;;6.17;5.47;;;25.70;99.90;;;;;;5035119;28;20202;-66
2022/06/12 07:03:17;;;;;;;5.70;5.20;;;26.00;99.90;;;;;;5050777;28;20426;-66
2022/06/12 07:05:45;;;;;;;5.83;5.33;;;26.20;99.90;;;;;;5066012;28;20509;-66
2022/06/12 07:08:11;;;;;;;5.33;5.00;;;26.40;99.90;;;;;;5074724;28;20948;-66
2022/06/12 07:10:37;;;;;;;5.57;5.13;;;26.60;99.90;;;;;;5062422;28;20404;-66
2022/06/12 07:13:03;;;;;;;6.30;5.80;;;26.80;99.90;;;;;;5042886;28;20432;-66
2022/06/12 07:15:30;;;;;;;5.93;5.60;;;26.80;99.90;;;;;;5034943;28;20581;-66
2022/06/12 07:17:58;;;;;;;5.63;5.13;;;27.00;99.90;;;;;;5034917;28;20416;-66
2022/06/12 07:20:26;;;;;;;5.37;5.00;;;27.20;99.90;;;;;;5034375;28;20968;-66
2022/06/12 07:22:52;;;;;;;10.30;6.17;;;27.40;99.90;;;;;;5047749;28;20427;-66
2022/06/12 07:25:19;;;;;;;5.20;4.70;;;27.50;99.80;;;;;;5054647;28;20411;-66
2022/06/12 07:27:45;;;;;;;6.20;5.70;;;27.70;99.50;;;;;;5054561;28;20291;-67
2022/06/12 07:30:14;;;;;;;5.50;5.10;;;27.80;99.10;;;;;;5041509;28;20435;-67
2022/06/12 07:32:40;;;;;;;6.27;5.63;;;27.90;98.30;;;;;;5041351;28;20456;-66
2022/06/12 07:35:06;;;;;;;7.13;5.17;;;27.90;97.70;;;;;;5041030;28;21644;-66
2022/06/12 07:37:35;;;;;;;7.47;6.77;;;28.00;97.40;;;;;;5056424;28;20652;-67
2022/06/12 07:40:03;;;;;;;5.57;5.13;;;28.10;97.40;;;;;;5058323;28;20542;-67
2022/06/12 07:42:29;;;;;;;5.67;5.27;;;28.20;96.50;;;;;;5053374;28;20452;-66
2022/06/12 07:44:54;;;;;;;4.60;4.30;;;28.30;96.40;;;;;;5058352;28;20516;-67
2022/06/12 07:47:20;;;;;;;5.80;5.30;;;28.60;95.60;;;;;;5052307;28;20180;-64
2022/06/12 07:49:46;;;;;;;4.30;4.00;;;28.70;94.70;;;;;;5058306;28;20209;-67
2022/06/12 07:52:12;;;;;;;6.33;5.77;;;28.80;94.50;;;;;;5054967;28;20204;-67
2022/06/12 07:54:39;;;;;;;4.73;4.40;;;28.80;93.50;;;;;;5050381;28;20196;-67
2022/06/12 07:57:06;;;;;;;4.50;4.20;;;28.90;93.50;;;;;;5059390;28;20439;-67
2022/06/12 07:59:33;;;;;;;4.93;4.63;;;29.10;92.90;;;;;;5056162;28;20467;-67
2022/06/12 08:01:58;;;;;;;4.37;3.97;;;29.30;92.40;;;;;;5055572;28;20451;-67
2022/06/12 08:04:24;;;;;;;4.27;3.87;;;29.40;91.40;;;;;;5057782;28;20610;-64
2022/06/12 08:06:51;;;;;;;5.30;4.93;;;29.40;91.30;;;;;;5056649;28;20518;-67
2022/06/12 08:09:16;;;;;;;4.27;3.97;;;29.50;91.10;;;;;;5051647;28;20177;-65
2022/06/12 08:11:44;;;;;;;4.57;4.17;;;29.60;90.60;;;;;;5060592;28;20455;-67
2022/06/12 08:14:10;;;;;;;4.37;4.00;;;29.70;90.00;;;;;;5050575;28;20653;-65
2022/06/12 08:16:36;;;;;;;8.00;4.10;;;29.90;88.30;;;;;;5055274;28;20498;-65
2022/06/12 08:19:02;;;;;;;5.57;4.60;;;30.10;87.10;;;;;;5057817;28;20173;-65
2022/06/12 08:21:28;;;;;;;4.73;4.23;;;30.10;85.90;;;;;;5053206;28;20841;-65
2022/06/12 08:23:58;;;;;;;5.67;5.27;;;30.10;85.30;;;;;;5054964;28;20427;-67
2022/06/12 08:26:27;;;;;;;4.07;3.63;;;30.10;84.40;;;;;;5053193;28;20652;-65
2022/06/12 08:28:58;;;;;;;4.33;4.03;;;30.20;81.00;;;;;;5049562;28;20475;-65
2022/06/12 08:31:31;;;;;;;4.40;4.00;;;30.30;80.10;;;;;;5052804;28;21640;-65
2022/06/12 08:34:01;;;;;;;5.93;4.50;;;30.30;78.50;;;;;;5060046;28;20514;-65
2022/06/12 08:36:29;;;;;;;4.60;4.40;;;30.50;77.90;;;;;;5053856;28;20452;-65
2022/06/12 08:38:54;;;;;;;4.00;3.70;;;30.70;75.80;;;;;;5057011;28;20463;-65
2022/06/12 08:41:33;;;;;;;4.60;4.20;;;30.90;75.70;;;;;;5055755;28;20946;-65
2022/06/12 08:44:06;;;;;;;4.50;4.10;;;31.00;73.50;;;;;;5057599;28;20173;-65
2022/06/12 08:46:43;;;;;;;5.80;4.80;;;31.00;71.90;;;;;;5057683;28;20429;-65
2022/06/12 08:49:21;;;;;;;4.03;3.70;;;30.70;72.00;;;;;;5061418;28;20607;-65
2022/06/12 08:51:54;;;;;;;5.13;4.73;;;30.90;72.80;;;;;;5055846;28;20447;-65
2022/06/12 08:54:46;;;;;;;4.93;4.40;;;31.20;71.40;;;;;;5056167;28;20439;-66
2022/06/12 08:57:21;;;;;;;7.00;3.90;;;31.10;70.50;;;;;;5049262;28;20445;-65
2022/06/12 08:59:53;;;;;;;4.43;4.17;;;31.30;69.90;;;;;;5047038;28;20461;-65
2022/06/12 09:02:26;;;;;;;3.77;3.57;;;31.40;70.80;;;;;;5054020;28;20456;-65
2022/06/12 09:04:52;;;;;;;5.07;4.63;;;31.50;68.40;;;;;;5048357;28;20439;-64
2022/06/12 09:07:29;;;;;;;4.30;4.00;;;31.30;68.40;;;;;;5058063;28;20801;-65
2022/06/12 09:10:00;;;;;;;4.50;4.20;;;31.30;68.80;;;;;;5041320;28;20514;-65
2022/06/12 09:12:47;;;;;;;5.63;4.90;;;31.30;68.70;;;;;;5038673;28;20507;-65
2022/06/12 09:15:25;;;;;;;4.07;3.70;;;31.50;69.00;;;;;;5048267;28;20448;-65
2022/06/12 09:18:28;;;;;;;4.63;4.23;;;31.90;67.80;;;;;;5048921;28;20434;-64
2022/06/12 09:21:33;;;;;;;4.20;3.90;;;32.20;66.40;;;;;;5051399;28;20879;-64
2022/06/12 09:23:59;;;;;;;4.47;4.20;;;32.60;65.90;;;;;;5050646;28;20826;-65
2022/06/12 09:26:33;;;;;;;5.03;4.63;;;32.80;64.50;;;;;;5059189;28;20432;-65
2022/06/12 09:29:26;;;;;;;4.37;4.07;;;32.90;63.40;;;;;;5049603;28;20496;-65
2022/06/12 09:32:32;;;;;;;5.00;4.70;;;33.10;63.10;;;;;;5043825;28;20453;-64
2022/06/12 09:35:16;;;;;;;4.10;3.80;;;33.00;62.40;;;;;;5045168;28;20439;-65
2022/06/12 09:38:22;;;;;;;6.63;5.47;;;33.10;62.40;;;;;;5054340;28;20452;-64
2022/06/12 09:40:57;;;;;;;5.10;4.80;;;32.70;61.00;;;;;;5050625;28;20983;-65
2022/06/12 09:43:39;;;;;;;5.10;4.80;;;32.70;62.00;;;;;;5051146;28;20460;-65
2022/06/12 09:46:07;;;;;;;5.70;5.23;;;32.70;61.50;;;;;;5059005;28;20539;-65
2022/06/12 09:48:45;;;;;;;5.50;5.10;;;32.20;62.30;;;;;;5061254;28;20530;-65
2022/06/12 09:51:16;;;;;;;4.57;4.27;;;31.30;62.60;;;;;;5068962;22;21178;-68
2022/06/12 09:53:58;;;;;;;4.10;3.90;;;30.60;64.20;;;;;;5030233;28;20447;-68
2022/06/12 09:56:54;;;;;;;4.60;4.30;;;30.60;65.50;;;;;;5041871;28;20716;-67
2022/06/12 09:59:22;;;;;;;4.60;4.30;;;31.70;64.10;;;;;;5035485;28;20784;-67
2022/06/12 10:01:53;;;;;;;6.43;5.93;;;32.70;62.10;;;;;;5032015;28;21091;-67
2022/06/12 10:04:56;;;;;;;5.17;4.67;;;32.60;62.70;;;;;;5037285;28;20447;-65
2022/06/12 10:07:31;;;;;;;4.90;4.50;;;33.10;61.40;;;;;;5015993;28;20799;-65
2022/06/12 10:10:06;;;;;;;4.93;4.53;;;33.90;59.80;;;;;;5038267;28;20450;-64
2022/06/12 10:12:39;;;;;;;4.53;3.90;;;34.70;58.90;;;;;;5038469;28;21080;-65
2022/06/12 10:15:28;;;;;;;4.40;4.10;;;35.00;56.60;;;;;;5038102;28;20433;-65
2022/06/12 10:18:03;;;;;;;4.63;4.23;;;35.20;56.00;;;;;;5035385;28;20811;-65
2022/06/12 10:20:33;;;;;;;5.77;4.27;;;34.80;55.10;;;;;;5039782;28;20587;-68
2022/06/12 10:23:00;;;;;;;4.80;4.37;;;35.20;56.80;;;;;;5036533;28;20502;-65
2022/06/12 10:25:33;;;;;;;5.13;4.83;;;36.30;55.20;;;;;;5040130;28;20665;-66
2022/06/12 10:28:03;;;;;;;5.50;4.80;;;36.90;53.50;;;;;;5041846;28;20447;-65
2022/06/12 10:30:33;;;;;;;5.03;4.70;;;36.70;53.70;;;;;;5034608;28;20490;-66
2022/06/12 10:33:19;;;;;;;4.30;4.00;;;37.10;52.60;;;;;;5026117;28;20447;-65
2022/06/12 10:35:56;;;;;;;4.67;4.27;;;36.90;51.40;;;;;;5043517;28;20432;-65
2022/06/12 10:38:24;;;;;;;4.80;4.50;;;36.80;51.40;;;;;;5020993;28;20432;-66
2022/06/12 10:41:00;;;;;;;5.67;4.33;;;37.40;51.90;;;;;;5033581;28;20491;-66
2022/06/12 10:43:35;;;;;;;4.70;4.40;;;38.00;50.70;;;;;;5038547;28;20432;-65
2022/06/12 10:46:03;;;;;;;4.87;4.60;;;37.70;50.10;;;;;;5038320;28;20950;-64
2022/06/12 10:48:34;;;;;;;4.47;4.07;;;36.90;50.00;;;;;;5036630;28;20492;-65
2022/06/12 10:51:06;;;;;;;4.20;3.80;;;35.80;50.60;;;;;;5042149;28;20427;-65
2022/06/12 10:53:34;;;;;;;5.00;4.40;;;35.30;50.90;;;;;;5033440;28;20437;-65
2022/06/12 10:56:25;;;;;;;4.53;4.23;;;34.70;51.10;;;;;;5042695;28;20435;-66
2022/06/12 10:59:03;;;;;;;5.10;4.60;;;33.40;52.80;;;;;;5028565;28;20440;-65
2022/06/12 11:01:56;;;;;;;4.93;4.60;;;33.00;54.00;;;;;;5040975;28;20467;-65
2022/06/12 11:04:43;;;;;;;4.03;3.80;;;32.50;54.90;;;;;;5037763;28;20804;-66
2022/06/12 11:07:20;;;;;;;5.80;4.50;;;33.50;53.60;;;;;;5021600;28;20795;-65
2022/06/12 11:09:59;;;;;;;5.37;4.50;;;34.20;53.30;;;;;;5033494;28;20511;-64
2022/06/12 11:12:34;;;;;;;4.43;4.03;;;35.30;50.90;;;;;;5036516;28;20456;-66
2022/06/12 11:15:10;;;;;;;3.90;3.70;;;36.70;49.90;;;;;;5041497;28;20454;-64
2022/06/12 11:17:54;;;;;;;4.13;3.60;;;36.40;49.30;;;;;;5038303;28;20439;-65
2022/06/12 11:20:46;;;;;;;4.70;4.37;;;35.50;49.30;;;;;;5038585;28;20465;-65
2022/06/12 11:23:35;;;;;;;6.10;5.70;;;34.80;50.60;;;;;;5030997;28;20436;-66
2022/06/12 11:26:00;;;;;;;4.60;4.20;;;35.50;49.30;;;;;;5034363;28;20454;-65
2022/06/12 11:28:45;;;;;;;4.27;3.87;;;36.00;49.10;;;;;;5039776;28;20445;-66
2022/06/12 11:31:17;;;;;;;4.27;3.97;;;37.40;47.40;;;;;;5035373;28;20202;-68
2022/06/12 11:33:46;;;;;;;4.37;3.97;;;37.40;47.90;;;;;;5042171;28;20486;-65
2022/06/12 11:36:44;;;;;;;5.60;5.20;;;36.80;47.80;;;;;;5043138;28;20806;-65
2022/06/12 11:39:38;;;;;;;4.77;4.37;;;36.60;48.50;;;;;;5040089;28;20979;-65
2022/06/12 11:42:16;;;;;;;5.90;5.40;;;36.00;47.90;;;;;;5037305;28;20999;-65
2022/06/12 11:45:09;;;;;;;4.83;4.43;;;35.70;48.30;;;;;;5041509;28;20479;-66
2022/06/12 11:48:07;;;;;;;3.97;3.77;;;36.30;48.20;;;;;;5040817;28;20472;-65
2022/06/12 11:50:54;;;;;;;8.50;4.50;;;36.90;48.20;;;;;;5042126;28;20440;-65
2022/06/12 11:53:22;;;;;;;4.70;4.40;;;36.50;48.00;;;;;;5038978;28;20456;-65
2022/06/12 11:56:09;;;;;;;4.30;4.00;;;35.40;48.90;;;;;;5040030;28;20523;-65
2022/06/12 11:58:46;;;;;;;4.23;3.63;;;35.00;49.20;;;;;;5038695;28;20453;-65
2022/06/12 12:01:17;;;;;;;3.93;3.60;;;37.10;47.80;;;;;;5040890;28;20477;-65
2022/06/12 12:04:19;;;;;;;4.80;3.70;;;39.80;45.00;;;;;;5039777;28;20441;-65
2022/06/12 12:07:12;;;;;;;4.33;4.03;;;40.90;43.00;;;;;;5044547;28;20442;-64
2022/06/12 12:10:15;;;;;;;4.07;3.77;;;40.20;42.10;;;;;;5038132;28;20526;-66
2022/06/12 12:12:45;;;;;;;3.80;3.60;;;40.80;41.50;;;;;;5035292;28;20832;-65
2022/06/12 12:15:23;;;;;;;4.37;4.07;;;42.90;40.70;;;;;;5034171;28;20811;-65
2022/06/12 12:17:50;;;;;;;4.07;3.77;;;42.90;39.40;;;;;;5038704;28;20463;-65
2022/06/12 12:20:24;;;;;;;3.97;3.77;;;43.70;38.20;;;;;;5039072;28;20466;-65
2022/06/12 12:22:59;;;;;;;4.30;3.90;;;43.80;36.90;;;;;;5028902;28;20463;-66
2022/06/12 12:25:31;;;;;;;4.23;3.93;;;43.80;37.30;;;;;;5033220;28;20493;-66
2022/06/12 12:28:01;;;;;;;4.30;4.00;;;43.70;37.00;;;;;;5040219;28;20523;-65
2022/06/12 12:30:39;;;;;;;4.37;4.07;;;42.40;37.00;;;;;;5040235;28;20452;-65
2022/06/12 12:33:09;;;;;;;4.00;3.70;;;40.30;38.30;;;;;;5043163;28;20467;-65
2022/06/12 12:41:16;;;;;;;3.70;3.50;;;37.00;41.80;;;;;;5040135;28;20493;-66
2022/06/12 12:43:54;;;;;;;3.97;3.67;;;35.90;43.50;;;;;;5042350;28;20933;-65
2022/06/12 12:46:22;;;;;;;4.13;3.83;;;35.10;43.60;;;;;;5040451;28;20928;-65
2022/06/12 12:48:49;;;;;;;7.50;4.10;;;34.50;44.90;;;;;;5043940;28;20467;-65
2022/06/12 12:51:33;;;;;;;3.90;3.70;;;34.30;45.40;;;;;;5036684;28;20959;-65
2022/06/12 12:54:10;;;;;;;4.87;4.47;;;33.70;45.80;;;;;;5031371;28;20435;-66
2022/06/12 12:56:40;;;;;;;5.00;3.47;;;35.10;44.50;;;;;;5040882;28;20440;-66
2022/06/12 12:59:08;;;;;;;3.60;3.40;;;36.00;43.80;;;;;;5035970;28;20428;-66
2022/06/12 13:01:43;;;;;;;4.13;3.83;;;36.70;43.30;;;;;;5042366;28;21058;-65
2022/06/12 13:04:22;;;;;;;5.70;5.30;;;36.70;43.30;;;;;;5042600;28;20437;-66
2022/06/12 13:07:16;;;;;;;3.80;3.60;;;36.00;44.20;;;;;;5031250;28;20477;-65
2022/06/12 13:09:55;;;;;;;4.63;4.13;;;35.70;44.20;;;;;;5033705;28;20445;-65
2022/06/12 13:12:54;;;;;;;4.17;3.93;;;36.10;43.90;;;;;;5040357;28;20458;-65
2022/06/12 13:15:42;;;;;;;4.60;4.07;;;36.00;44.10;;;;;;5035928;28;20448;-65
2022/06/12 13:18:27;;;;;;;4.10;3.80;;;35.90;43.30;;;;;;5035710;28;21827;-66
2022/06/12 13:20:59;;;;;;;4.77;4.30;;;35.70;43.50;;;;;;5035156;28;20868;-65
2022/06/12 13:23:56;;;;;;;4.20;4.00;;;34.90;44.20;;;;;;5036447;28;20448;-65
2022/06/12 13:26:24;;;;;;;6.63;4.40;;;34.00;44.90;;;;;;5037885;28;20491;-65
2022/06/12 13:28:56;;;;;;;3.90;3.60;;;33.80;45.40;;;;;;5038891;28;20428;-66
2022/06/12 13:31:22;;;;;;;3.93;3.63;;;34.00;45.50;;;;;;5052352;28;20428;-64